Time;durP1;ratioP1;P1;durP2;ratioP2;P2;SDS_P1;SDS_P2;PMS_P1;PMS_P2;Temp;Humidity;BMP_temperature;BMP_pressure;BME280_temperature;BME280_humidity;BME280_pressure;Samples;Min_cycle;Max_cycle;Signal;HPM_P1;HPM_P2
2024/02/27 00:01:40;;;;;;;5.70;3.33;;;3.70;99.90;;;;;;5060539;28;20455;-75
2024/02/27 00:04:06;;;;;;;7.85;3.90;;;3.70;99.90;;;;;;5061340;28;20036;-75
2024/02/27 00:06:32;;;;;;;13.07;4.57;;;3.80;99.90;;;;;;5060446;28;20047;-75
2024/02/27 00:08:57;;;;;;;10.38;4.60;;;3.80;99.90;;;;;;5059592;28;20045;-75
2024/02/27 00:11:23;;;;;;;10.27;4.65;;;3.80;99.90;;;;;;5059924;28;20044;-75
2024/02/27 00:13:49;;;;;;;10.65;4.32;;;3.70;99.90;;;;;;5060195;28;20080;-75
2024/02/27 00:16:18;;;;;;;8.43;4.13;;;3.80;99.90;;;;;;5059987;28;20041;-75
2024/02/27 00:18:45;;;;;;;5.82;3.72;;;3.80;99.90;;;;;;5059385;28;20071;-75
2024/02/27 00:21:11;;;;;;;9.82;4.18;;;3.70;99.90;;;;;;5058283;28;20045;-75
2024/02/27 00:23:37;;;;;;;7.00;3.30;;;3.70;99.90;;;;;;5059653;28;20068;-75
2024/02/27 00:26:03;;;;;;;9.45;3.97;;;3.90;99.90;;;;;;5059864;28;20465;-75
2024/02/27 00:28:29;;;;;;;8.50;3.00;;;3.80;99.90;;;;;;5059542;28;20063;-75
2024/02/27 00:30:54;;;;;;;7.57;3.22;;;3.80;99.90;;;;;;5058389;28;20124;-75
2024/02/27 00:33:20;;;;;;;6.80;3.58;;;3.70;99.90;;;;;;5060049;28;20033;-75
2024/02/27 00:35:46;;;;;;;8.05;3.38;;;3.80;99.90;;;;;;5058931;28;20045;-75
2024/02/27 00:38:12;;;;;;;7.10;3.85;;;3.80;99.90;;;;;;5060625;28;20044;-75
2024/02/27 00:40:37;;;;;;;6.47;3.20;;;3.70;99.90;;;;;;5059217;28;20041;-75
2024/02/27 00:43:04;;;;;;;7.05;3.67;;;3.80;99.90;;;;;;5059514;28;20045;-75
2024/02/27 00:45:29;;;;;;;9.73;3.72;;;3.70;99.90;;;;;;5060060;28;20420;-75
2024/02/27 00:47:57;;;;;;;7.55;4.15;;;3.60;99.90;;;;;;5042236;28;20052;-75
2024/02/27 00:50:23;;;;;;;11.05;3.90;;;3.70;99.90;;;;;;5059668;28;20089;-75
2024/02/27 00:52:49;;;;;;;7.30;3.45;;;3.60;99.90;;;;;;5058522;28;20055;-75
2024/02/27 00:55:16;;;;;;;7.03;3.67;;;3.50;99.90;;;;;;5059301;28;20067;-75
2024/02/27 00:57:42;;;;;;;5.72;3.78;;;3.60;99.90;;;;;;5059553;28;20037;-75
2024/02/27 01:00:08;;;;;;;9.60;5.13;;;3.70;99.90;;;;;;5060192;28;20037;-75
2024/02/27 01:02:35;;;;;;;6.93;3.72;;;3.60;99.90;;;;;;5059273;28;20072;-75
2024/02/27 01:05:01;;;;;;;10.98;4.30;;;3.60;99.90;;;;;;5058877;28;20455;-75
2024/02/27 01:07:27;;;;;;;9.18;4.20;;;3.40;99.90;;;;;;5058338;28;20037;-75
2024/02/27 01:09:56;;;;;;;6.53;3.70;;;3.40;99.90;;;;;;5058633;28;20086;-75
2024/02/27 01:12:22;;;;;;;10.63;4.70;;;3.40;99.90;;;;;;5059010;28;20045;-75
2024/02/27 01:14:48;;;;;;;8.30;3.92;;;3.50;99.90;;;;;;5059535;28;20037;-75
2024/02/27 01:17:13;;;;;;;18.30;5.05;;;3.50;99.90;;;;;;5057869;28;20063;-75
2024/02/27 01:19:39;;;;;;;13.93;4.68;;;3.40;99.90;;;;;;5058417;28;20059;-75
2024/02/27 01:22:05;;;;;;;9.27;5.10;;;3.50;99.90;;;;;;5055710;28;20075;-75
2024/02/27 01:24:30;;;;;;;9.57;4.80;;;3.50;99.90;;;;;;5057924;28;20041;-75
2024/02/27 01:26:56;;;;;;;11.55;6.25;;;3.50;99.90;;;;;;5058777;28;20037;-75
2024/02/27 01:29:22;;;;;;;10.50;4.55;;;3.50;99.90;;;;;;5057218;28;20044;-76
2024/02/27 01:31:48;;;;;;;12.00;5.05;;;3.50;99.90;;;;;;5053223;28;20048;-75
2024/02/27 01:34:14;;;;;;;8.55;4.90;;;3.40;99.90;;;;;;5050024;28;20037;-76
2024/02/27 01:36:39;;;;;;;9.68;4.63;;;3.40;99.90;;;;;;5050202;28;20033;-76
2024/02/27 01:39:06;;;;;;;10.23;6.00;;;3.40;99.90;;;;;;5057742;28;20090;-76
2024/02/27 01:41:32;;;;;;;13.13;5.75;;;3.30;99.90;;;;;;5057631;28;20064;-75
2024/02/27 01:43:57;;;;;;;10.07;5.43;;;3.50;99.90;;;;;;5040464;28;20048;-76
2024/02/27 01:46:24;;;;;;;12.52;5.95;;;3.30;99.90;;;;;;5059165;28;20041;-75
2024/02/27 01:48:50;;;;;;;14.93;6.07;;;3.30;99.90;;;;;;5056315;28;20116;-75
2024/02/27 01:51:18;;;;;;;11.65;5.80;;;3.20;99.90;;;;;;5057327;28;20069;-75
2024/02/27 01:53:50;;;;;;;13.27;6.15;;;3.20;99.90;;;;;;5058259;28;20100;-75
2024/02/27 01:56:17;;;;;;;11.82;6.18;;;3.20;99.90;;;;;;5057490;28;20124;-75
2024/02/27 01:58:44;;;;;;;11.77;5.88;;;3.20;99.90;;;;;;5058222;28;20064;-75
2024/02/27 02:01:13;;;;;;;12.70;6.22;;;3.40;99.90;;;;;;5057062;28;20419;-75
2024/02/27 02:03:40;;;;;;;11.65;6.80;;;3.30;99.90;;;;;;5058082;28;20124;-75
2024/02/27 02:06:07;;;;;;;12.40;6.13;;;3.40;99.90;;;;;;5059147;28;20041;-75
2024/02/27 02:08:34;;;;;;;11.38;5.93;;;3.20;99.90;;;;;;5058679;28;20032;-75
2024/02/27 02:11:05;;;;;;;11.40;6.47;;;3.40;99.90;;;;;;5058096;28;20041;-75
2024/02/27 02:13:30;;;;;;;13.07;6.22;;;3.30;99.90;;;;;;5058183;28;20063;-75
2024/02/27 02:15:56;;;;;;;11.43;6.13;;;3.40;99.90;;;;;;5058487;28;20439;-75
2024/02/27 02:18:22;;;;;;;13.57;7.63;;;3.50;99.90;;;;;;5058166;28;20041;-75
2024/02/27 02:20:48;;;;;;;15.32;6.75;;;3.50;99.90;;;;;;5056427;28;20033;-75
2024/02/27 02:23:13;;;;;;;13.60;7.00;;;3.30;99.90;;;;;;5058303;28;20552;-75
2024/02/27 02:25:41;;;;;;;13.00;7.30;;;3.10;99.90;;;;;;5058510;28;20045;-75
2024/02/27 02:28:07;;;;;;;14.02;6.38;;;3.20;99.90;;;;;;5058081;28;20037;-75
2024/02/27 02:30:33;;;;;;;14.35;7.15;;;3.10;99.90;;;;;;5040694;28;20048;-75
2024/02/27 02:32:59;;;;;;;11.30;6.28;;;3.20;99.90;;;;;;5057863;28;20044;-75
2024/02/27 02:35:24;;;;;;;13.77;7.15;;;3.10;99.90;;;;;;5058009;28;20041;-75
2024/02/27 02:37:50;;;;;;;15.95;7.85;;;3.20;99.90;;;;;;5058327;28;20121;-75
2024/02/27 02:40:18;;;;;;;16.05;7.72;;;3.10;99.90;;;;;;5057616;28;20037;-73
2024/02/27 02:42:44;;;;;;;15.27;7.07;;;3.10;99.90;;;;;;5059999;28;20064;-73
2024/02/27 02:45:11;;;;;;;15.48;7.85;;;3.10;99.90;;;;;;5062455;28;20041;-73
2024/02/27 02:47:37;;;;;;;19.40;7.65;;;3.20;99.90;;;;;;5062044;28;20041;-75
2024/02/27 02:50:03;;;;;;;14.73;7.03;;;3.00;99.90;;;;;;5060089;28;20437;-75
2024/02/27 02:52:29;;;;;;;14.95;7.55;;;3.30;99.90;;;;;;5059910;28;20043;-75
2024/02/27 02:54:54;;;;;;;16.55;7.78;;;3.20;99.90;;;;;;5060452;28;20116;-75
2024/02/27 02:57:20;;;;;;;16.38;7.45;;;3.30;99.90;;;;;;5060702;28;20040;-75
2024/02/27 02:59:46;;;;;;;14.43;6.95;;;3.20;99.90;;;;;;5060407;28;20075;-75
2024/02/27 03:02:12;;;;;;;14.52;7.13;;;3.20;99.90;;;;;;5059988;28;20033;-75
2024/02/27 03:04:38;;;;;;;13.18;6.82;;;3.10;99.90;;;;;;5060636;28;20119;-75
2024/02/27 03:07:03;;;;;;;11.52;6.53;;;3.20;99.90;;;;;;5060358;28;20064;-75
2024/02/27 03:09:31;;;;;;;15.70;6.93;;;3.20;99.90;;;;;;5060570;28;20044;-76
2024/02/27 03:11:58;;;;;;;12.45;6.40;;;3.00;99.90;;;;;;5058908;28;20068;-75
2024/02/27 03:14:24;;;;;;;14.00;7.18;;;3.00;99.90;;;;;;5060027;28;20200;-76
2024/02/27 03:16:50;;;;;;;13.07;6.65;;;3.10;99.90;;;;;;5060392;28;20580;-76
2024/02/27 03:19:16;;;;;;;13.93;6.35;;;3.10;99.90;;;;;;5060423;28;20105;-73
2024/02/27 03:21:41;;;;;;;15.95;7.13;;;3.00;99.90;;;;;;5060394;28;20072;-73
2024/02/27 03:24:07;;;;;;;18.67;7.63;;;2.90;99.90;;;;;;5042945;28;20040;-73
2024/02/27 03:26:33;;;;;;;16.05;6.88;;;2.80;99.90;;;;;;5061365;28;20075;-73
2024/02/27 03:28:59;;;;;;;15.35;6.43;;;2.90;99.90;;;;;;5058853;28;20033;-73
2024/02/27 03:31:25;;;;;;;13.15;7.07;;;3.00;99.90;;;;;;5060092;28;20033;-73
2024/02/27 03:33:50;;;;;;;13.48;7.25;;;3.00;99.90;;;;;;5059427;28;20049;-75
2024/02/27 03:36:16;;;;;;;13.00;7.40;;;2.90;99.90;;;;;;5060120;28;20072;-75
2024/02/27 03:38:45;;;;;;;13.90;6.85;;;2.70;99.90;;;;;;5059286;28;20100;-75
2024/02/27 03:41:18;;;;;;;14.98;7.47;;;2.90;99.90;;;;;;5058837;28;20447;-75
2024/02/27 03:43:43;;;;;;;19.95;9.18;;;2.90;99.90;;;;;;5059650;28;20060;-75
2024/02/27 03:46:10;;;;;;;15.15;6.50;;;3.00;99.90;;;;;;5042534;28;20041;-75
2024/02/27 03:48:36;;;;;;;14.50;6.88;;;2.90;99.90;;;;;;5059714;28;20369;-75
2024/02/27 03:51:01;;;;;;;16.23;7.28;;;2.90;99.90;;;;;;5058961;28;20044;-75
2024/02/27 03:53:30;;;;;;;17.75;9.32;;;2.70;99.90;;;;;;5059405;28;20485;-75
2024/02/27 03:55:56;;;;;;;14.60;7.68;;;2.70;99.90;;;;;;5059864;28;20041;-75
2024/02/27 03:58:22;;;;;;;13.52;7.53;;;2.90;99.90;;;;;;5060343;28;20036;-75
2024/02/27 04:00:48;;;;;;;13.43;6.90;;;3.00;99.90;;;;;;5059788;28;20043;-75
2024/02/27 04:03:14;;;;;;;14.77;6.38;;;2.80;99.90;;;;;;5059085;28;20098;-75
2024/02/27 04:05:40;;;;;;;14.73;7.97;;;2.80;99.90;;;;;;5058382;28;20037;-75
2024/02/27 04:08:08;;;;;;;15.15;7.10;;;2.80;99.90;;;;;;5059447;28;20108;-75
2024/02/27 04:10:37;;;;;;;12.50;7.13;;;2.80;99.90;;;;;;5053843;28;20049;-75
2024/02/27 04:13:04;;;;;;;14.70;7.00;;;2.70;99.90;;;;;;5038218;28;20041;-75
2024/02/27 04:15:30;;;;;;;10.77;6.18;;;2.60;99.90;;;;;;5038614;28;20067;-75
2024/02/27 04:17:57;;;;;;;11.65;6.18;;;2.80;99.90;;;;;;5039436;28;20041;-75
2024/02/27 04:20:23;;;;;;;16.02;8.05;;;2.70;99.90;;;;;;5039191;28;20037;-73
2024/02/27 04:22:49;;;;;;;13.60;6.05;;;2.70;99.90;;;;;;5038937;28;20042;-73
2024/02/27 04:25:15;;;;;;;12.65;6.13;;;2.70;99.90;;;;;;5039681;28;20061;-73
2024/02/27 04:27:41;;;;;;;13.38;6.28;;;2.60;99.90;;;;;;5039556;28;20124;-72
2024/02/27 04:30:07;;;;;;;11.02;6.25;;;2.60;99.90;;;;;;5037989;28;20075;-73
2024/02/27 04:32:34;;;;;;;14.50;6.35;;;2.80;99.90;;;;;;5038837;28;20052;-73
2024/02/27 04:35:00;;;;;;;13.10;6.22;;;2.60;99.90;;;;;;5038860;28;20056;-72
2024/02/27 04:37:26;;;;;;;14.18;6.47;;;2.60;99.90;;;;;;5040763;28;20037;-72
2024/02/27 04:39:51;;;;;;;14.73;7.05;;;2.70;99.90;;;;;;5040540;28;20095;-73
2024/02/27 04:42:18;;;;;;;14.25;6.60;;;2.70;99.90;;;;;;5039145;28;20042;-73
2024/02/27 04:44:43;;;;;;;10.23;6.13;;;3.00;99.90;;;;;;5074276;22;20121;-71
2024/02/27 04:47:09;;;;;;;12.55;7.35;;;2.80;99.90;;;;;;5052740;28;20036;-71
2024/02/27 04:49:35;;;;;;;12.93;6.07;;;2.80;99.90;;;;;;5051857;28;20069;-71
2024/02/27 04:52:00;;;;;;;12.52;6.00;;;3.00;99.90;;;;;;5051229;28;20064;-71
2024/02/27 04:54:26;;;;;;;13.35;6.57;;;3.10;99.90;;;;;;5052396;28;20033;-71
2024/02/27 04:56:52;;;;;;;10.48;5.63;;;2.90;99.90;;;;;;5034323;28;20060;-71
2024/02/27 04:59:17;;;;;;;13.70;6.00;;;3.20;99.90;;;;;;5051871;28;20454;-71
2024/02/27 05:01:49;;;;;;;11.77;6.40;;;3.20;99.90;;;;;;5051970;28;20029;-71
2024/02/27 05:04:16;;;;;;;11.65;5.88;;;3.10;99.90;;;;;;5051416;28;20040;-71
2024/02/27 05:06:42;;;;;;;15.88;6.90;;;3.30;99.90;;;;;;5051999;28;20595;-71
2024/02/27 05:09:08;;;;;;;13.23;6.53;;;3.30;99.90;;;;;;5051935;28;20120;-71
2024/02/27 05:11:34;;;;;;;10.80;5.57;;;3.30;99.90;;;;;;5051586;28;20045;-72
2024/02/27 05:14:00;;;;;;;11.50;5.93;;;3.10;99.90;;;;;;5051867;28;20033;-71
2024/02/27 05:16:26;;;;;;;13.43;6.00;;;3.10;99.90;;;;;;5052126;28;20155;-71
2024/02/27 05:18:51;;;;;;;11.57;5.88;;;3.00;99.90;;;;;;5051640;28;20172;-71
2024/02/27 05:21:20;;;;;;;9.15;5.88;;;3.00;99.90;;;;;;5051514;28;20047;-71
2024/02/27 05:23:46;;;;;;;14.10;6.20;;;3.20;99.90;;;;;;5051783;28;20056;-71
2024/02/27 05:26:14;;;;;;;12.93;6.40;;;3.30;99.90;;;;;;5051771;28;20614;-71
2024/02/27 05:28:40;;;;;;;10.52;6.10;;;3.00;99.90;;;;;;5051377;28;20041;-71
2024/02/27 05:31:22;;;;;;;14.15;7.68;;;3.00;99.90;;;;;;5033753;28;20052;-71
2024/02/27 05:33:47;;;;;;;11.73;6.40;;;3.20;99.90;;;;;;5051777;28;20077;-71
2024/02/27 05:36:13;;;;;;;11.57;6.65;;;3.00;99.90;;;;;;5051589;28;20468;-71
2024/02/27 05:38:39;;;;;;;15.00;7.43;;;3.40;99.90;;;;;;5051459;28;20037;-71
2024/02/27 05:41:04;;;;;;;21.23;9.93;;;3.10;99.90;;;;;;5051101;28;20068;-71
2024/02/27 05:43:30;;;;;;;14.70;7.50;;;3.40;99.90;;;;;;5051291;28;20044;-71
2024/02/27 05:45:55;;;;;;;13.13;6.75;;;3.50;99.90;;;;;;5051672;28;20029;-71
2024/02/27 05:48:21;;;;;;;14.75;7.40;;;3.10;99.90;;;;;;5051366;28;20407;-71
2024/02/27 05:50:47;;;;;;;15.68;7.65;;;3.50;99.90;;;;;;5051059;28;20086;-71
2024/02/27 05:53:12;;;;;;;13.10;7.20;;;3.50;99.90;;;;;;5051334;28;20067;-71
2024/02/27 05:55:38;;;;;;;16.48;7.65;;;3.40;99.90;;;;;;5051275;28;20048;-71
2024/02/27 05:58:03;;;;;;;15.23;7.97;;;3.30;99.90;;;;;;5051056;28;20175;-71
2024/02/27 06:00:29;;;;;;;15.20;8.25;;;3.60;99.90;;;;;;5032993;28;20052;-71
2024/02/27 06:02:54;;;;;;;19.45;9.07;;;3.70;99.90;;;;;;5051336;28;20044;-71
2024/02/27 06:05:20;;;;;;;17.25;8.93;;;3.50;99.90;;;;;;5051385;28;20091;-71
2024/02/27 06:07:46;;;;;;;18.60;9.02;;;3.70;99.90;;;;;;5050989;28;20033;-71
2024/02/27 06:10:11;;;;;;;17.27;9.05;;;3.60;99.90;;;;;;5050915;28;20033;-71
2024/02/27 06:12:37;;;;;;;21.15;10.45;;;3.60;99.90;;;;;;5033204;28;20466;-71
2024/02/27 06:15:03;;;;;;;20.25;10.13;;;3.60;99.90;;;;;;5053178;28;20120;-71
2024/02/27 06:17:29;;;;;;;20.15;10.25;;;3.70;99.90;;;;;;5037606;28;20443;-71
2024/02/27 06:19:59;;;;;;;18.92;9.50;;;3.80;99.90;;;;;;5054932;28;20033;-72
2024/02/27 06:22:25;;;;;;;18.00;8.68;;;3.70;99.90;;;;;;5054746;28;20086;-71
2024/02/27 06:24:51;;;;;;;16.30;8.63;;;3.80;99.90;;;;;;5054947;28;20037;-71
2024/02/27 06:27:17;;;;;;;15.70;8.57;;;3.80;99.90;;;;;;5055266;28;20048;-71
2024/02/27 06:29:42;;;;;;;17.98;9.27;;;3.90;99.90;;;;;;5054795;28;20041;-71
2024/02/27 06:32:10;;;;;;;14.05;8.57;;;4.10;99.90;;;;;;5036645;28;20041;-71
2024/02/27 06:34:36;;;;;;;17.05;9.23;;;4.10;99.90;;;;;;5054881;28;20123;-71
2024/02/27 06:37:02;;;;;;;20.55;9.93;;;4.10;99.90;;;;;;5054922;28;20112;-71
2024/02/27 06:39:28;;;;;;;19.08;10.27;;;4.20;99.90;;;;;;5054453;28;20041;-71
2024/02/27 06:41:54;;;;;;;15.88;9.05;;;4.10;99.90;;;;;;5054438;28;20416;-71
2024/02/27 06:44:19;;;;;;;16.95;9.40;;;4.10;99.90;;;;;;5054664;28;20047;-71
2024/02/27 06:46:45;;;;;;;16.88;10.25;;;4.10;99.90;;;;;;5037002;28;20370;-71
2024/02/27 06:49:11;;;;;;;16.98;7.97;;;4.30;99.90;;;;;;5054479;28;20505;-71
2024/02/27 06:51:37;;;;;;;15.80;9.32;;;4.30;99.90;;;;;;5020097;28;20041;-71
2024/02/27 06:54:03;;;;;;;15.50;8.88;;;4.40;99.90;;;;;;5054704;28;20531;-71
2024/02/27 06:56:30;;;;;;;15.50;9.40;;;4.30;99.90;;;;;;5054507;28;20052;-71
2024/02/27 06:58:56;;;;;;;17.70;8.68;;;4.30;99.90;;;;;;5054492;28;20037;-71
2024/02/27 07:01:23;;;;;;;15.75;9.93;;;4.40;99.90;;;;;;5054254;28;20432;-71
2024/02/27 07:03:52;;;;;;;13.88;8.88;;;4.30;99.90;;;;;;5054423;28;20041;-71
2024/02/27 07:06:18;;;;;;;19.70;9.68;;;4.30;99.90;;;;;;5036781;28;20460;-71
2024/02/27 07:08:47;;;;;;;14.65;9.27;;;4.30;99.90;;;;;;5054046;28;20115;-71
2024/02/27 07:11:13;;;;;;;16.38;8.82;;;4.40;99.90;;;;;;5054009;28;20033;-71
2024/02/27 07:13:39;;;;;;;15.13;8.93;;;4.40;99.90;;;;;;5054293;28;20037;-71
2024/02/27 07:16:05;;;;;;;15.77;9.05;;;4.40;99.90;;;;;;5054319;28;20071;-71
2024/02/27 07:18:31;;;;;;;13.25;8.88;;;4.40;99.90;;;;;;5053928;28;20043;-71
2024/02/27 07:20:57;;;;;;;17.25;8.38;;;4.50;99.90;;;;;;5053557;28;20033;-71
2024/02/27 07:23:23;;;;;;;16.15;9.13;;;4.40;99.90;;;;;;5053965;28;20075;-71
2024/02/27 07:25:49;;;;;;;12.35;8.32;;;4.50;99.90;;;;;;5053529;28;20485;-71
2024/02/27 07:28:14;;;;;;;13.90;8.48;;;4.70;99.90;;;;;;5053790;28;20041;-71
2024/02/27 07:30:40;;;;;;;13.80;7.70;;;4.90;99.90;;;;;;5035908;28;20090;-71
2024/02/27 07:33:06;;;;;;;13.40;8.73;;;5.00;99.90;;;;;;5053909;28;20640;-71
2024/02/27 07:35:32;;;;;;;13.88;8.80;;;5.20;99.90;;;;;;5053912;28;20049;-72
2024/02/27 07:37:57;;;;;;;12.68;8.00;;;5.50;99.90;;;;;;5053862;28;20048;-71
2024/02/27 07:40:23;;;;;;;13.25;8.35;;;5.40;99.90;;;;;;5053452;28;20033;-72
2024/02/27 07:42:48;;;;;;;11.23;8.25;;;5.30;99.90;;;;;;5053424;28;20049;-71
2024/02/27 07:45:16;;;;;;;13.05;9.77;;;5.20;99.90;;;;;;5053864;28;20409;-71
2024/02/27 07:47:42;;;;;;;14.88;8.80;;;5.20;99.90;;;;;;5053656;28;20429;-71
2024/02/27 07:50:09;;;;;;;13.65;8.93;;;5.10;99.90;;;;;;5035553;28;20032;-71
2024/02/27 07:52:34;;;;;;;14.95;9.45;;;5.20;99.90;;;;;;5035109;28;20049;-72
2024/02/27 07:55:00;;;;;;;15.02;9.23;;;5.40;99.90;;;;;;5053666;28;20041;-72
2024/02/27 07:57:26;;;;;;;15.65;9.23;;;5.60;99.90;;;;;;5035658;28;20064;-72
2024/02/27 07:59:52;;;;;;;16.10;9.35;;;5.80;99.90;;;;;;5042728;28;20042;-72
2024/02/27 08:02:17;;;;;;;13.85;8.65;;;6.00;99.90;;;;;;5032921;28;20497;-71
2024/02/27 08:04:43;;;;;;;12.60;8.77;;;6.10;99.90;;;;;;5015417;28;20413;-72
2024/02/27 08:07:09;;;;;;;14.07;8.70;;;6.30;99.90;;;;;;5033603;28;20040;-72
2024/02/27 08:09:34;;;;;;;15.35;8.75;;;6.40;99.90;;;;;;5033099;28;20046;-72
2024/02/27 08:12:00;;;;;;;15.18;8.75;;;6.60;99.90;;;;;;5015041;28;20083;-72
2024/02/27 08:14:29;;;;;;;13.55;9.15;;;6.70;99.90;;;;;;5033281;28;20557;-72
2024/02/27 08:16:54;;;;;;;14.27;9.00;;;6.60;99.90;;;;;;5015432;28;20081;-72
2024/02/27 08:19:20;;;;;;;14.93;8.43;;;6.70;99.90;;;;;;5032664;28;20445;-72
2024/02/27 08:21:46;;;;;;;14.27;9.05;;;6.50;99.90;;;;;;5032561;28;20120;-72
2024/02/27 08:24:12;;;;;;;13.98;7.20;;;6.40;99.90;;;;;;5033049;28;20046;-72
2024/02/27 08:26:39;;;;;;;11.85;7.20;;;6.20;99.90;;;;;;5033115;28;20386;-72
2024/02/27 08:29:05;;;;;;;13.07;7.18;;;6.10;99.90;;;;;;5014932;28;20131;-72
2024/02/27 08:31:31;;;;;;;14.05;8.77;;;6.00;99.90;;;;;;5032455;28;20080;-72
2024/02/27 08:33:57;;;;;;;13.45;7.95;;;5.90;99.90;;;;;;5014972;28;20056;-72
2024/02/27 08:36:25;;;;;;;11.65;7.53;;;5.90;99.90;;;;;;5014978;28;20037;-72
2024/02/27 08:38:50;;;;;;;12.13;7.90;;;5.70;99.90;;;;;;5031603;28;20421;-73
2024/02/27 08:41:20;;;;;;;13.88;7.10;;;5.70;99.90;;;;;;5032340;28;20033;-72
2024/02/27 08:43:46;;;;;;;9.82;6.95;;;5.70;99.90;;;;;;5032492;28;20053;-72
2024/02/27 08:46:18;;;;;;;12.30;7.65;;;5.70;99.90;;;;;;5044840;28;20035;-72
2024/02/27 08:48:44;;;;;;;11.57;7.55;;;5.60;99.90;;;;;;5051593;28;20039;-72
2024/02/27 08:51:10;;;;;;;10.63;7.53;;;5.60;99.90;;;;;;5051326;28;20033;-72
2024/02/27 08:53:36;;;;;;;12.45;7.03;;;5.50;99.90;;;;;;5051801;28;20539;-72
2024/02/27 08:56:04;;;;;;;12.82;6.95;;;5.50;99.90;;;;;;5051885;28;20033;-72
2024/02/27 08:58:36;;;;;;;11.45;8.88;;;5.50;99.90;;;;;;5150030;27;20392;-73
2024/02/27 09:01:03;;;;;;;14.75;6.80;;;5.50;99.90;;;;;;5149570;27;20092;-73
2024/02/27 09:03:29;;;;;;;13.68;8.50;;;5.50;99.90;;;;;;5139930;27;20077;-73
2024/02/27 09:05:55;;;;;;;11.93;8.07;;;5.50;99.90;;;;;;5152321;27;20042;-73
2024/02/27 09:08:22;;;;;;;13.25;7.88;;;5.50;99.90;;;;;;5152447;27;20091;-73
2024/02/27 09:10:47;;;;;;;12.38;7.93;;;5.50;99.90;;;;;;5169820;27;20078;-73
2024/02/27 09:13:13;;;;;;;11.93;6.97;;;5.60;99.90;;;;;;5152260;27;20081;-72
2024/02/27 09:15:39;;;;;;;10.23;7.38;;;5.60;99.90;;;;;;5170973;27;20087;-72
2024/02/27 09:18:04;;;;;;;9.45;6.40;;;5.50;99.90;;;;;;5170374;27;20573;-73
2024/02/27 09:20:31;;;;;;;10.43;6.97;;;5.60;99.90;;;;;;5170348;27;20102;-72
2024/02/27 09:22:57;;;;;;;9.55;6.72;;;5.50;99.90;;;;;;5151854;27;20030;-72
2024/02/27 09:25:23;;;;;;;11.77;7.03;;;5.50;99.90;;;;;;5151954;27;20034;-73
2024/02/27 09:27:49;;;;;;;10.88;7.20;;;5.50;99.90;;;;;;5152277;27;20042;-73
2024/02/27 09:30:15;;;;;;;14.82;7.88;;;5.50;99.90;;;;;;5170467;27;20405;-72
2024/02/27 09:32:41;;;;;;;13.70;8.23;;;5.50;99.90;;;;;;5170493;27;20034;-73
2024/02/27 09:35:10;;;;;;;11.23;8.05;;;5.50;99.90;;;;;;5152018;27;20043;-72
2024/02/27 09:37:36;;;;;;;11.93;8.40;;;5.50;99.90;;;;;;5152029;27;20573;-72
2024/02/27 09:40:02;;;;;;;10.85;7.15;;;5.60;99.90;;;;;;5152043;27;20038;-72
2024/02/27 09:42:33;;;;;;;12.77;7.55;;;5.50;99.90;;;;;;5170246;27;20677;-72
2024/02/27 09:44:59;;;;;;;11.27;7.50;;;5.60;99.90;;;;;;5170916;27;20070;-72
2024/02/27 09:47:25;;;;;;;13.18;7.63;;;5.70;99.90;;;;;;5177820;27;20116;-72
2024/02/27 09:49:52;;;;;;;12.00;8.13;;;5.60;99.90;;;;;;5152568;27;20049;-72
2024/02/27 09:52:21;;;;;;;13.85;9.15;;;5.70;99.90;;;;;;5170090;27;20406;-72
2024/02/27 09:54:48;;;;;;;12.65;8.52;;;5.70;99.90;;;;;;5170345;27;20034;-72
2024/02/27 09:57:15;;;;;;;10.52;7.60;;;5.60;99.90;;;;;;5170032;27;20049;-72
2024/02/27 09:59:41;;;;;;;11.60;8.20;;;5.70;99.90;;;;;;5170178;27;20111;-72
2024/02/27 10:02:14;;;;;;;12.82;7.45;;;5.80;99.90;;;;;;5169706;27;20034;-73
2024/02/27 10:04:40;;;;;;;11.65;8.38;;;5.70;99.90;;;;;;5170105;27;20216;-72
2024/02/27 10:07:10;;;;;;;11.60;7.43;;;5.70;99.90;;;;;;5170073;27;20489;-73
2024/02/27 10:09:46;;;;;;;12.05;8.10;;;5.80;99.90;;;;;;5158226;27;20440;-73
2024/02/27 10:12:13;;;;;;;13.43;8.27;;;5.80;99.90;;;;;;5137470;27;20490;-73
2024/02/27 10:14:40;;;;;;;12.27;7.38;;;5.80;99.90;;;;;;5156124;27;20114;-72
2024/02/27 10:17:07;;;;;;;11.10;7.38;;;5.70;99.90;;;;;;5156228;27;20039;-72
2024/02/27 10:19:34;;;;;;;14.35;7.50;;;5.70;99.90;;;;;;5155446;27;20114;-72
2024/02/27 10:22:00;;;;;;;13.63;8.45;;;5.70;99.90;;;;;;5136795;27;20039;-72
2024/02/27 10:24:29;;;;;;;16.52;8.77;;;5.70;99.90;;;;;;5155676;27;20552;-73
2024/02/27 10:27:02;;;;;;;12.40;8.80;;;5.70;99.90;;;;;;5155817;27;20433;-72
2024/02/27 10:29:29;;;;;;;11.18;7.97;;;5.70;99.90;;;;;;5155693;27;20076;-73
2024/02/27 10:31:55;;;;;;;11.65;7.22;;;5.60;99.90;;;;;;5154790;27;20062;-73
2024/02/27 10:34:22;;;;;;;12.73;7.60;;;5.70;99.90;;;;;;5155668;27;20642;-73
2024/02/27 10:37:04;;;;;;;11.05;7.90;;;5.60;99.90;;;;;;5154480;27;20074;-72
2024/02/27 10:39:33;;;;;;;11.10;8.18;;;5.70;99.90;;;;;;5133631;27;20043;-73
2024/02/27 10:41:59;;;;;;;11.32;7.80;;;5.70;99.90;;;;;;5154523;27;20066;-73
2024/02/27 10:44:29;;;;;;;11.95;7.40;;;5.60;99.90;;;;;;5131316;22;20070;-75
2024/02/27 10:46:55;;;;;;;12.70;8.30;;;5.60;99.90;;;;;;5063895;28;20443;-75
2024/02/27 10:49:21;;;;;;;11.93;7.60;;;5.70;99.90;;;;;;5082746;28;20116;-75
2024/02/27 10:51:48;;;;;;;11.98;7.80;;;5.70;99.90;;;;;;5082321;28;20373;-75
2024/02/27 10:54:17;;;;;;;11.65;7.35;;;5.90;99.90;;;;;;5082607;28;20037;-75
2024/02/27 10:56:46;;;;;;;24.08;9.65;;;5.90;99.90;;;;;;5083235;28;20068;-75
2024/02/27 10:59:12;;;;;;;9.80;7.25;;;5.90;99.90;;;;;;5082419;28;20029;-74
2024/02/27 11:01:41;;;;;;;11.50;8.73;;;5.90;99.90;;;;;;5081893;28;20100;-75
2024/02/27 11:04:21;;;;;;;14.30;8.48;;;5.80;99.90;;;;;;5082401;28;20045;-75
2024/02/27 11:06:50;;;;;;;12.05;8.07;;;5.80;99.90;;;;;;5081094;28;20048;-73
2024/02/27 11:09:23;;;;;;;13.05;8.40;;;5.80;99.90;;;;;;5082395;28;20090;-74
2024/02/27 11:11:52;;;;;;;10.77;7.47;;;5.80;99.90;;;;;;5083570;28;20066;-74
2024/02/27 11:14:22;;;;;;;11.07;7.55;;;5.80;99.90;;;;;;5083751;28;20067;-77
2024/02/27 11:16:54;;;;;;;13.07;7.80;;;5.80;99.90;;;;;;5082063;28;20040;-77
2024/02/27 11:19:22;;;;;;;12.32;8.05;;;5.90;99.90;;;;;;5081630;28;20040;-76
2024/02/27 11:21:52;;;;;;;11.13;7.63;;;5.90;99.90;;;;;;5080851;28;20036;-76
2024/02/27 11:24:19;;;;;;;12.32;8.15;;;6.00;99.90;;;;;;5084502;28;20067;-77
2024/02/27 11:26:46;;;;;;;10.80;7.30;;;6.00;99.90;;;;;;5083737;28;20047;-76
2024/02/27 11:29:13;;;;;;;11.30;7.88;;;6.00;99.90;;;;;;5084527;28;20039;-77
2024/02/27 11:31:40;;;;;;;13.10;8.63;;;6.00;99.90;;;;;;5082144;28;20515;-77
2024/02/27 11:34:06;;;;;;;13.07;8.30;;;5.90;99.90;;;;;;5084623;28;20040;-77
2024/02/27 11:36:33;;;;;;;11.48;8.10;;;6.00;99.90;;;;;;5085297;28;20048;-77
2024/02/27 11:38:59;;;;;;;12.40;8.02;;;5.90;99.90;;;;;;5084243;28;20100;-77
2024/02/27 11:41:26;;;;;;;12.93;8.23;;;6.10;99.90;;;;;;5082542;28;20115;-77
2024/02/27 11:43:55;;;;;;;12.18;7.97;;;6.20;99.90;;;;;;5085709;28;20067;-77
2024/02/27 11:46:26;;;;;;;14.55;7.55;;;6.10;99.90;;;;;;5085031;28;20032;-77
2024/02/27 11:48:52;;;;;;;13.93;8.70;;;6.30;99.90;;;;;;5085538;28;20045;-77
2024/02/27 11:51:32;;;;;;;11.05;8.07;;;6.30;99.90;;;;;;5085036;28;20037;-76
2024/02/27 11:53:58;;;;;;;12.25;7.95;;;6.40;99.90;;;;;;5084746;28;20090;-76
2024/02/27 11:56:25;;;;;;;14.40;8.45;;;6.40;99.90;;;;;;5101866;28;20037;-77
2024/02/27 11:58:54;;;;;;;12.27;7.78;;;6.50;99.90;;;;;;5085176;28;20041;-76
2024/02/27 12:01:22;;;;;;;13.13;8.50;;;6.60;99.90;;;;;;5084216;28;20119;-76
2024/02/27 12:03:48;;;;;;;14.45;9.00;;;6.60;99.90;;;;;;5084624;28;20085;-77
2024/02/27 12:06:14;;;;;;;14.98;8.55;;;6.60;99.90;;;;;;5084255;28;20119;-77
2024/02/27 12:08:50;;;;;;;17.42;8.85;;;6.70;99.90;;;;;;5083552;28;20053;-77
2024/02/27 12:11:16;;;;;;;16.42;9.88;;;6.60;99.90;;;;;;5083511;28;20052;-77
2024/02/27 12:13:45;;;;;;;19.02;10.13;;;6.60;99.90;;;;;;5081515;28;20036;-76
2024/02/27 12:16:11;;;;;;;15.15;9.80;;;6.50;99.90;;;;;;5081483;28;20044;-76
2024/02/27 12:18:37;;;;;;;15.10;8.70;;;6.50;99.90;;;;;;5081389;28;20044;-74
2024/02/27 12:21:03;;;;;;;16.48;9.57;;;6.60;99.90;;;;;;5080463;28;20048;-74
2024/02/27 12:23:30;;;;;;;15.75;9.82;;;6.70;99.90;;;;;;5083507;28;20039;-74
2024/02/27 12:25:56;;;;;;;17.30;9.90;;;6.60;99.90;;;;;;5083350;28;20496;-74
2024/02/27 12:28:22;;;;;;;16.75;9.85;;;6.60;99.90;;;;;;5083412;28;20044;-74
2024/02/27 12:30:49;;;;;;;14.23;9.30;;;6.60;99.90;;;;;;5078830;28;20043;-74
2024/02/27 12:33:16;;;;;;;15.77;10.43;;;6.70;99.90;;;;;;5080835;28;20044;-73
2024/02/27 12:35:43;;;;;;;15.52;10.27;;;6.60;99.90;;;;;;5083429;28;20505;-74
2024/02/27 12:38:09;;;;;;;16.55;10.50;;;6.70;99.90;;;;;;5083219;28;20036;-74
2024/02/27 12:40:36;;;;;;;16.02;9.25;;;6.60;99.90;;;;;;5082563;28;20104;-74
2024/02/27 12:43:02;;;;;;;15.18;9.07;;;6.50;99.90;;;;;;5084065;28;20037;-75
2024/02/27 12:45:30;;;;;;;18.10;10.05;;;6.50;99.90;;;;;;5083156;28;20044;-74